sensor_id;sensor_type;location;lat;lon;timestamp;temperature;humidity
30534;DHT22;17318;52.390;9.754;2022-12-13T00:00:54;-1.40;95.90
30534;DHT22;17318;52.390;9.754;2022-12-13T00:03:20;-1.40;95.80
30534;DHT22;17318;52.390;9.754;2022-12-13T00:05:45;-1.10;96.00
30534;DHT22;17318;52.390;9.754;2022-12-13T00:08:11;-1.10;96.20
30534;DHT22;17318;52.390;9.754;2022-12-13T00:10:38;-1.40;95.80
30534;DHT22;17318;52.390;9.754;2022-12-13T00:13:03;-1.40;95.60
30534;DHT22;17318;52.390;9.754;2022-12-13T00:15:29;-1.60;95.10
30534;DHT22;17318;52.390;9.754;2022-12-13T00:17:54;-1.70;95.20
30534;DHT22;17318;52.390;9.754;2022-12-13T00:20:20;-1.60;95.50
30534;DHT22;17318;52.390;9.754;2022-12-13T00:22:46;-1.50;95.50
30534;DHT22;17318;52.390;9.754;2022-12-13T00:25:11;-1.70;95.30
30534;DHT22;17318;52.390;9.754;2022-12-13T00:27:37;-1.70;95.30
30534;DHT22;17318;52.390;9.754;2022-12-13T00:30:03;-1.80;95.20
30534;DHT22;17318;52.390;9.754;2022-12-13T00:32:29;-1.80;95.20
30534;DHT22;17318;52.390;9.754;2022-12-13T00:34:54;-1.90;95.30
30534;DHT22;17318;52.390;9.754;2022-12-13T00:37:20;-2.00;95.30
30534;DHT22;17318;52.390;9.754;2022-12-13T00:39:46;-2.00;95.30
30534;DHT22;17318;52.390;9.754;2022-12-13T00:42:11;-1.90;95.50
30534;DHT22;17318;52.390;9.754;2022-12-13T00:44:37;-2.00;95.40
30534;DHT22;17318;52.390;9.754;2022-12-13T00:47:02;-2.00;95.50
30534;DHT22;17318;52.390;9.754;2022-12-13T00:49:28;-2.00;95.40
30534;DHT22;17318;52.390;9.754;2022-12-13T00:51:54;-2.00;95.30
30534;DHT22;17318;52.390;9.754;2022-12-13T00:54:19;-1.90;95.30
30534;DHT22;17318;52.390;9.754;2022-12-13T00:56:45;-2.00;95.20
30534;DHT22;17318;52.390;9.754;2022-12-13T00:59:13;-2.00;95.40
30534;DHT22;17318;52.390;9.754;2022-12-13T01:01:38;-2.10;95.10
30534;DHT22;17318;52.390;9.754;2022-12-13T01:04:05;-2.00;95.10
30534;DHT22;17318;52.390;9.754;2022-12-13T01:06:38;-2.10;95.20
30534;DHT22;17318;52.390;9.754;2022-12-13T01:09:07;-2.20;95.00
30534;DHT22;17318;52.390;9.754;2022-12-13T01:11:34;-2.30;95.10
30534;DHT22;17318;52.390;9.754;2022-12-13T01:14:00;-2.30;95.20
30534;DHT22;17318;52.390;9.754;2022-12-13T01:16:25;-2.20;95.30
30534;DHT22;17318;52.390;9.754;2022-12-13T01:18:51;-2.20;95.30
30534;DHT22;17318;52.390;9.754;2022-12-13T01:21:18;-2.20;95.30
30534;DHT22;17318;52.390;9.754;2022-12-13T01:23:45;-2.20;95.20
30534;DHT22;17318;52.390;9.754;2022-12-13T01:26:13;-2.20;95.10
30534;DHT22;17318;52.390;9.754;2022-12-13T01:28:39;-2.20;95.10
30534;DHT22;17318;52.390;9.754;2022-12-13T01:31:09;-2.30;94.90
30534;DHT22;17318;52.390;9.754;2022-12-13T01:33:36;-2.40;94.80
30534;DHT22;17318;52.390;9.754;2022-12-13T01:36:05;-2.50;94.90
30534;DHT22;17318;52.390;9.754;2022-12-13T01:38:31;-2.50;95.00
30534;DHT22;17318;52.390;9.754;2022-12-13T01:40:56;-2.50;95.20
30534;DHT22;17318;52.390;9.754;2022-12-13T01:46:12;-2.60;95.10
30534;DHT22;17318;52.390;9.754;2022-12-13T01:48:43;-2.40;95.20
30534;DHT22;17318;52.390;9.754;2022-12-13T01:51:11;-2.50;95.10
30534;DHT22;17318;52.390;9.754;2022-12-13T01:53:39;-2.50;95.00
30534;DHT22;17318;52.390;9.754;2022-12-13T01:56:11;-2.50;94.90
30534;DHT22;17318;52.390;9.754;2022-12-13T01:58:39;-2.50;94.90
30534;DHT22;17318;52.390;9.754;2022-12-13T02:01:06;-2.50;94.90
30534;DHT22;17318;52.390;9.754;2022-12-13T02:03:32;-2.50;95.00
30534;DHT22;17318;52.390;9.754;2022-12-13T02:06:05;-2.60;94.90
30534;DHT22;17318;52.390;9.754;2022-12-13T02:08:32;-2.60;94.90
30534;DHT22;17318;52.390;9.754;2022-12-13T02:11:00;-2.70;94.70
30534;DHT22;17318;52.390;9.754;2022-12-13T02:13:26;-2.60;94.70
30534;DHT22;17318;52.390;9.754;2022-12-13T02:16:35;-2.60;94.70
30534;DHT22;17318;52.390;9.754;2022-12-13T02:30:19;-2.60;94.60
30534;DHT22;17318;52.390;9.754;2022-12-13T02:35:50;-2.90;94.60
30534;DHT22;17318;52.390;9.754;2022-12-13T02:38:32;-2.90;94.70
30534;DHT22;17318;52.390;9.754;2022-12-13T02:41:21;-2.80;94.90
30534;DHT22;17318;52.390;9.754;2022-12-13T02:43:56;-2.80;94.80
30534;DHT22;17318;52.390;9.754;2022-12-13T02:46:26;-2.70;94.80
30534;DHT22;17318;52.390;9.754;2022-12-13T02:48:54;-2.80;94.80
30534;DHT22;17318;52.390;9.754;2022-12-13T02:51:21;-2.70;95.10
30534;DHT22;17318;52.390;9.754;2022-12-13T02:53:47;-2.70;95.20
30534;DHT22;17318;52.390;9.754;2022-12-13T02:56:13;-2.40;95.30
30534;DHT22;17318;52.390;9.754;2022-12-13T02:58:43;-2.60;95.30
30534;DHT22;17318;52.390;9.754;2022-12-13T03:04:09;-2.50;95.30
30534;DHT22;17318;52.390;9.754;2022-12-13T03:06:45;-2.50;96.00
30534;DHT22;17318;52.390;9.754;2022-12-13T03:17:47;-2.40;96.00
30534;DHT22;17318;52.390;9.754;2022-12-13T03:20:16;-2.30;96.00
30534;DHT22;17318;52.390;9.754;2022-12-13T03:22:42;-2.30;95.90
30534;DHT22;17318;52.390;9.754;2022-12-13T03:25:08;-2.30;96.00
30534;DHT22;17318;52.390;9.754;2022-12-13T03:27:34;-2.30;95.90
30534;DHT22;17318;52.390;9.754;2022-12-13T03:30:00;-2.30;95.90
30534;DHT22;17318;52.390;9.754;2022-12-13T03:32:25;-2.30;95.80
30534;DHT22;17318;52.390;9.754;2022-12-13T03:34:51;-2.30;95.80
30534;DHT22;17318;52.390;9.754;2022-12-13T03:37:16;-2.20;95.90
30534;DHT22;17318;52.390;9.754;2022-12-13T03:39:42;-2.20;96.00
30534;DHT22;17318;52.390;9.754;2022-12-13T03:42:08;-2.30;95.70
30534;DHT22;17318;52.390;9.754;2022-12-13T03:44:33;-2.30;95.70
30534;DHT22;17318;52.390;9.754;2022-12-13T03:46:59;-2.30;95.80
30534;DHT22;17318;52.390;9.754;2022-12-13T03:49:25;-2.20;96.10
30534;DHT22;17318;52.390;9.754;2022-12-13T03:51:50;-2.20;96.10
30534;DHT22;17318;52.390;9.754;2022-12-13T03:54:16;-2.20;96.10
30534;DHT22;17318;52.390;9.754;2022-12-13T03:56:41;-2.20;96.20
30534;DHT22;17318;52.390;9.754;2022-12-13T03:59:07;-2.20;96.20
30534;DHT22;17318;52.390;9.754;2022-12-13T04:01:33;-2.10;96.20
30534;DHT22;17318;52.390;9.754;2022-12-13T04:03:59;-2.20;96.00
30534;DHT22;17318;52.390;9.754;2022-12-13T04:06:24;-2.20;95.90
30534;DHT22;17318;52.390;9.754;2022-12-13T04:08:51;-2.20;95.90
30534;DHT22;17318;52.390;9.754;2022-12-13T04:11:16;-2.20;95.80
30534;DHT22;17318;52.390;9.754;2022-12-13T04:14:01;-2.20;95.80
30534;DHT22;17318;52.390;9.754;2022-12-13T04:16:26;-2.20;95.80
30534;DHT22;17318;52.390;9.754;2022-12-13T04:18:52;-2.20;95.70
30534;DHT22;17318;52.390;9.754;2022-12-13T04:21:18;-2.20;95.80
30534;DHT22;17318;52.390;9.754;2022-12-13T04:23:43;-2.30;95.80
30534;DHT22;17318;52.390;9.754;2022-12-13T04:26:09;-2.20;95.90
30534;DHT22;17318;52.390;9.754;2022-12-13T04:28:36;-2.30;95.90
30534;DHT22;17318;52.390;9.754;2022-12-13T04:31:01;-2.00;96.20
30534;DHT22;17318;52.390;9.754;2022-12-13T04:33:27;-2.20;96.00
30534;DHT22;17318;52.390;9.754;2022-12-13T04:35:53;-2.20;96.10
30534;DHT22;17318;52.390;9.754;2022-12-13T04:38:18;-2.10;96.20
30534;DHT22;17318;52.390;9.754;2022-12-13T04:40:45;-2.00;96.30
30534;DHT22;17318;52.390;9.754;2022-12-13T04:43:10;-1.80;96.30
30534;DHT22;17318;52.390;9.754;2022-12-13T04:45:36;-2.00;96.20
30534;DHT22;17318;52.390;9.754;2022-12-13T04:48:02;-1.90;96.20
30534;DHT22;17318;52.390;9.754;2022-12-13T04:50:27;-2.00;96.20
30534;DHT22;17318;52.390;9.754;2022-12-13T04:52:53;-2.10;96.20
30534;DHT22;17318;52.390;9.754;2022-12-13T04:55:19;-2.10;96.20
30534;DHT22;17318;52.390;9.754;2022-12-13T04:57:45;-2.10;96.20
30534;DHT22;17318;52.390;9.754;2022-12-13T05:00:12;-2.10;96.10
30534;DHT22;17318;52.390;9.754;2022-12-13T05:02:38;-2.10;95.80
30534;DHT22;17318;52.390;9.754;2022-12-13T05:05:08;-2.20;95.50
30534;DHT22;17318;52.390;9.754;2022-12-13T05:07:36;-2.20;95.60
30534;DHT22;17318;52.390;9.754;2022-12-13T05:10:01;-2.20;95.80
30534;DHT22;17318;52.390;9.754;2022-12-13T05:12:27;-2.10;96.10
30534;DHT22;17318;52.390;9.754;2022-12-13T05:14:53;-2.20;95.80
30534;DHT22;17318;52.390;9.754;2022-12-13T05:17:19;-1.80;96.00
30534;DHT22;17318;52.390;9.754;2022-12-13T05:19:45;-2.20;96.10
30534;DHT22;17318;52.390;9.754;2022-12-13T05:22:11;-2.20;95.80
30534;DHT22;17318;52.390;9.754;2022-12-13T05:24:41;-2.20;95.70
30534;DHT22;17318;52.390;9.754;2022-12-13T05:27:07;-2.20;95.80
30534;DHT22;17318;52.390;9.754;2022-12-13T05:29:33;-2.30;95.80
30534;DHT22;17318;52.390;9.754;2022-12-13T05:32:00;-2.20;95.90
30534;DHT22;17318;52.390;9.754;2022-12-13T05:34:26;-2.20;95.90
30534;DHT22;17318;52.390;9.754;2022-12-13T05:36:52;-2.20;95.80
30534;DHT22;17318;52.390;9.754;2022-12-13T05:39:18;-2.20;96.00
30534;DHT22;17318;52.390;9.754;2022-12-13T05:41:43;-2.20;96.00
30534;DHT22;17318;52.390;9.754;2022-12-13T05:44:09;-2.20;95.90
30534;DHT22;17318;52.390;9.754;2022-12-13T05:46:37;-2.30;96.00
30534;DHT22;17318;52.390;9.754;2022-12-13T05:49:03;-2.30;96.10
30534;DHT22;17318;52.390;9.754;2022-12-13T05:51:29;-2.10;96.10
30534;DHT22;17318;52.390;9.754;2022-12-13T05:53:54;-2.20;96.00
30534;DHT22;17318;52.390;9.754;2022-12-13T05:56:20;-2.30;95.90
30534;DHT22;17318;52.390;9.754;2022-12-13T05:58:46;-2.30;95.90
30534;DHT22;17318;52.390;9.754;2022-12-13T06:01:13;-2.30;96.00
30534;DHT22;17318;52.390;9.754;2022-12-13T06:03:40;-2.30;96.30
30534;DHT22;17318;52.390;9.754;2022-12-13T06:06:08;-2.30;96.00
30534;DHT22;17318;52.390;9.754;2022-12-13T06:08:34;-2.30;95.90
30534;DHT22;17318;52.390;9.754;2022-12-13T06:11:01;-2.30;95.80
30534;DHT22;17318;52.390;9.754;2022-12-13T06:13:27;-2.30;95.60
30534;DHT22;17318;52.390;9.754;2022-12-13T06:15:53;-2.40;95.40
30534;DHT22;17318;52.390;9.754;2022-12-13T06:18:19;-2.40;95.50
30534;DHT22;17318;52.390;9.754;2022-12-13T06:20:55;-2.40;95.70
30534;DHT22;17318;52.390;9.754;2022-12-13T06:23:21;-2.40;95.80
30534;DHT22;17318;52.390;9.754;2022-12-13T06:25:47;-2.40;95.90
30534;DHT22;17318;52.390;9.754;2022-12-13T06:28:13;-2.40;95.90
30534;DHT22;17318;52.390;9.754;2022-12-13T06:30:38;-2.40;95.90
30534;DHT22;17318;52.390;9.754;2022-12-13T06:33:04;-2.40;95.90
30534;DHT22;17318;52.390;9.754;2022-12-13T06:35:29;-2.50;95.80
30534;DHT22;17318;52.390;9.754;2022-12-13T06:37:56;-2.50;95.80
30534;DHT22;17318;52.390;9.754;2022-12-13T06:40:22;-2.50;95.80
30534;DHT22;17318;52.390;9.754;2022-12-13T06:42:47;-2.40;95.80
30534;DHT22;17318;52.390;9.754;2022-12-13T06:45:13;-2.40;95.80
30534;DHT22;17318;52.390;9.754;2022-12-13T06:47:39;-2.40;95.80
30534;DHT22;17318;52.390;9.754;2022-12-13T06:50:05;-2.40;95.80
30534;DHT22;17318;52.390;9.754;2022-12-13T06:52:30;-2.40;95.80
30534;DHT22;17318;52.390;9.754;2022-12-13T06:54:56;-2.40;96.00
30534;DHT22;17318;52.390;9.754;2022-12-13T06:57:22;-2.40;96.00
30534;DHT22;17318;52.390;9.754;2022-12-13T06:59:47;-2.40;96.00
30534;DHT22;17318;52.390;9.754;2022-12-13T07:02:13;-2.30;96.00
30534;DHT22;17318;52.390;9.754;2022-12-13T07:04:39;-2.40;95.90
30534;DHT22;17318;52.390;9.754;2022-12-13T07:07:04;-2.40;95.90
30534;DHT22;17318;52.390;9.754;2022-12-13T07:09:31;-2.40;95.90
30534;DHT22;17318;52.390;9.754;2022-12-13T07:11:57;-2.40;95.90
30534;DHT22;17318;52.390;9.754;2022-12-13T07:14:23;-2.40;96.10
30534;DHT22;17318;52.390;9.754;2022-12-13T07:16:49;-2.40;95.90
30534;DHT22;17318;52.390;9.754;2022-12-13T07:19:15;-2.40;96.10
30534;DHT22;17318;52.390;9.754;2022-12-13T07:21:41;-2.50;96.00
30534;DHT22;17318;52.390;9.754;2022-12-13T07:24:06;-2.50;96.00
30534;DHT22;17318;52.390;9.754;2022-12-13T07:26:32;-2.90;95.90
30534;DHT22;17318;52.390;9.754;2022-12-13T07:28:58;-2.40;96.10
30534;DHT22;17318;52.390;9.754;2022-12-13T07:31:24;-2.40;96.00
30534;DHT22;17318;52.390;9.754;2022-12-13T07:33:51;-2.40;96.00
30534;DHT22;17318;52.390;9.754;2022-12-13T07:36:19;-2.40;96.10
30534;DHT22;17318;52.390;9.754;2022-12-13T07:38:51;-2.40;96.20
30534;DHT22;17318;52.390;9.754;2022-12-13T07:41:17;-2.40;96.10
30534;DHT22;17318;52.390;9.754;2022-12-13T07:43:43;-2.30;96.20
30534;DHT22;17318;52.390;9.754;2022-12-13T07:46:09;-2.30;96.20
30534;DHT22;17318;52.390;9.754;2022-12-13T07:48:36;-2.30;96.10
30534;DHT22;17318;52.390;9.754;2022-12-13T07:51:04;-2.30;96.10
30534;DHT22;17318;52.390;9.754;2022-12-13T07:53:31;-2.30;96.00
30534;DHT22;17318;52.390;9.754;2022-12-13T07:56:03;-2.20;96.10
30534;DHT22;17318;52.390;9.754;2022-12-13T07:58:30;-2.30;95.90
30534;DHT22;17318;52.390;9.754;2022-12-13T08:01:01;-2.30;95.80
30534;DHT22;17318;52.390;9.754;2022-12-13T08:03:28;-2.30;95.90
30534;DHT22;17318;52.390;9.754;2022-12-13T08:06:12;-2.30;95.90
30534;DHT22;17318;52.390;9.754;2022-12-13T08:08:38;-2.20;96.10
30534;DHT22;17318;52.390;9.754;2022-12-13T08:11:11;-2.20;96.10
30534;DHT22;17318;52.390;9.754;2022-12-13T08:13:38;-2.20;96.10
30534;DHT22;17318;52.390;9.754;2022-12-13T08:16:07;-2.20;96.20
30534;DHT22;17318;52.390;9.754;2022-12-13T08:18:32;-2.10;96.10
30534;DHT22;17318;52.390;9.754;2022-12-13T08:21:03;-2.10;95.90
30534;DHT22;17318;52.390;9.754;2022-12-13T08:23:30;-2.00;96.00
30534;DHT22;17318;52.390;9.754;2022-12-13T08:25:56;-2.00;96.00
30534;DHT22;17318;52.390;9.754;2022-12-13T08:28:23;-2.00;96.10
30534;DHT22;17318;52.390;9.754;2022-12-13T08:30:49;-2.00;96.10
30534;DHT22;17318;52.390;9.754;2022-12-13T08:33:15;-2.00;96.10
30534;DHT22;17318;52.390;9.754;2022-12-13T08:35:41;-1.90;96.10
30534;DHT22;17318;52.390;9.754;2022-12-13T08:38:07;-1.90;96.10
30534;DHT22;17318;52.390;9.754;2022-12-13T08:40:33;-1.80;96.40
30534;DHT22;17318;52.390;9.754;2022-12-13T08:43:00;-1.80;96.10
30534;DHT22;17318;52.390;9.754;2022-12-13T08:45:26;-1.80;96.00
30534;DHT22;17318;52.390;9.754;2022-12-13T08:47:52;-1.70;96.10
30534;DHT22;17318;52.390;9.754;2022-12-13T08:50:18;-1.70;96.10
30534;DHT22;17318;52.390;9.754;2022-12-13T08:52:43;-1.70;96.10
30534;DHT22;17318;52.390;9.754;2022-12-13T08:55:13;-1.60;96.10
30534;DHT22;17318;52.390;9.754;2022-12-13T08:57:40;-1.60;96.10
30534;DHT22;17318;52.390;9.754;2022-12-13T09:00:18;-1.60;96.20
30534;DHT22;17318;52.390;9.754;2022-12-13T09:02:44;-1.50;96.20
30534;DHT22;17318;52.390;9.754;2022-12-13T09:05:10;-1.50;96.20
30534;DHT22;17318;52.390;9.754;2022-12-13T09:07:37;-1.50;96.20
30534;DHT22;17318;52.390;9.754;2022-12-13T09:10:10;-1.30;96.40
30534;DHT22;17318;52.390;9.754;2022-12-13T09:12:40;-1.40;96.20
30534;DHT22;17318;52.390;9.754;2022-12-13T09:15:05;-1.30;96.20
30534;DHT22;17318;52.390;9.754;2022-12-13T09:17:31;-1.20;96.20
30534;DHT22;17318;52.390;9.754;2022-12-13T09:19:57;-1.20;96.10
30534;DHT22;17318;52.390;9.754;2022-12-13T09:22:23;-1.10;96.10
30534;DHT22;17318;52.390;9.754;2022-12-13T09:24:48;-1.10;96.10
30534;DHT22;17318;52.390;9.754;2022-12-13T09:27:14;-1.00;96.10
30534;DHT22;17318;52.390;9.754;2022-12-13T09:29:40;-1.00;96.00
30534;DHT22;17318;52.390;9.754;2022-12-13T09:32:05;-0.90;96.10
30534;DHT22;17318;52.390;9.754;2022-12-13T09:34:31;-0.90;96.10
30534;DHT22;17318;52.390;9.754;2022-12-13T09:37:00;-0.90;95.90
30534;DHT22;17318;52.390;9.754;2022-12-13T09:39:26;-0.80;95.90
30534;DHT22;17318;52.390;9.754;2022-12-13T09:41:54;-0.80;95.90
30534;DHT22;17318;52.390;9.754;2022-12-13T09:44:24;-0.80;96.00
30534;DHT22;17318;52.390;9.754;2022-12-13T09:46:51;-0.70;95.90
30534;DHT22;17318;52.390;9.754;2022-12-13T09:51:54;-0.70;95.60
30534;DHT22;17318;52.390;9.754;2022-12-13T09:54:23;-0.70;95.80
30534;DHT22;17318;52.390;9.754;2022-12-13T09:56:49;-0.70;95.90
30534;DHT22;17318;52.390;9.754;2022-12-13T09:59:17;-0.60;96.00
30534;DHT22;17318;52.390;9.754;2022-12-13T10:01:45;-0.50;95.90
30534;DHT22;17318;52.390;9.754;2022-12-13T10:04:13;-0.50;95.90
30534;DHT22;17318;52.390;9.754;2022-12-13T10:06:41;-0.40;95.90
30534;DHT22;17318;52.390;9.754;2022-12-13T10:09:09;-0.40;95.90
30534;DHT22;17318;52.390;9.754;2022-12-13T10:11:46;-0.30;95.90
30534;DHT22;17318;52.390;9.754;2022-12-13T10:14:38;-0.20;96.00
30534;DHT22;17318;52.390;9.754;2022-12-13T10:17:04;-0.20;95.90
30534;DHT22;17318;52.390;9.754;2022-12-13T10:19:38;-0.30;95.60
30534;DHT22;17318;52.390;9.754;2022-12-13T10:22:10;-0.30;95.60
30534;DHT22;17318;52.390;9.754;2022-12-13T10:24:58;-0.20;95.90
30534;DHT22;17318;52.390;9.754;2022-12-13T10:29:58;-0.10;95.80
30534;DHT22;17318;52.390;9.754;2022-12-13T10:32:24;-0.20;95.30
30534;DHT22;17318;52.390;9.754;2022-12-13T10:34:50;-0.10;95.50
30534;DHT22;17318;52.390;9.754;2022-12-13T10:39:50;0.10;95.40
30534;DHT22;17318;52.390;9.754;2022-12-13T10:42:18;0.00;95.10
30534;DHT22;17318;52.390;9.754;2022-12-13T10:44:44;0.00;95.40
30534;DHT22;17318;52.390;9.754;2022-12-13T10:47:20;0.10;95.40
30534;DHT22;17318;52.390;9.754;2022-12-13T10:54:47;0.30;95.30
30534;DHT22;17318;52.390;9.754;2022-12-13T10:57:13;0.30;95.30
30534;DHT22;17318;52.390;9.754;2022-12-13T10:59:40;0.40;95.50
30534;DHT22;17318;52.390;9.754;2022-12-13T11:04:59;0.60;95.40
30534;DHT22;17318;52.390;9.754;2022-12-13T11:07:31;0.60;95.50
30534;DHT22;17318;52.390;9.754;2022-12-13T11:10:24;0.70;95.40
30534;DHT22;17318;52.390;9.754;2022-12-13T11:12:59;0.60;95.20
30534;DHT22;17318;52.390;9.754;2022-12-13T11:15:26;0.70;95.30
30534;DHT22;17318;52.390;9.754;2022-12-13T11:17:59;0.80;95.40
30534;DHT22;17318;52.390;9.754;2022-12-13T11:20:34;0.80;95.50
30534;DHT22;17318;52.390;9.754;2022-12-13T11:23:04;0.80;95.70
30534;DHT22;17318;52.390;9.754;2022-12-13T11:25:42;0.80;95.60
30534;DHT22;17318;52.390;9.754;2022-12-13T11:31:01;1.30;95.30
30534;DHT22;17318;52.390;9.754;2022-12-13T11:39:30;3.30;93.80
30534;DHT22;17318;52.390;9.754;2022-12-13T11:42:15;4.00;93.10
30534;DHT22;17318;52.390;9.754;2022-12-13T11:44:57;4.60;92.60
30534;DHT22;17318;52.390;9.754;2022-12-13T11:47:45;4.80;91.70
30534;DHT22;17318;52.390;9.754;2022-12-13T11:50:21;4.60;91.60
30534;DHT22;17318;52.390;9.754;2022-12-13T11:52:53;4.60;91.90
30534;DHT22;17318;52.390;9.754;2022-12-13T11:55:27;4.70;91.80
30534;DHT22;17318;52.390;9.754;2022-12-13T11:58:05;4.70;91.20
30534;DHT22;17318;52.390;9.754;2022-12-13T12:00:44;4.70;91.50
30534;DHT22;17318;52.390;9.754;2022-12-13T12:05:41;4.60;91.30
30534;DHT22;17318;52.390;9.754;2022-12-13T12:08:27;4.50;91.30
30534;DHT22;17318;52.390;9.754;2022-12-13T12:16:47;4.50;91.30
30534;DHT22;17318;52.390;9.754;2022-12-13T12:19:21;4.40;91.60
30534;DHT22;17318;52.390;9.754;2022-12-13T12:27:46;4.30;91.50
30534;DHT22;17318;52.390;9.754;2022-12-13T12:30:20;4.40;91.70
30534;DHT22;17318;52.390;9.754;2022-12-13T12:44:24;4.30;91.20
30534;DHT22;17318;52.390;9.754;2022-12-13T12:55:59;4.00;91.70
30534;DHT22;17318;52.390;9.754;2022-12-13T12:58:45;4.00;91.90
30534;DHT22;17318;52.390;9.754;2022-12-13T13:01:28;3.90;91.70
30534;DHT22;17318;52.390;9.754;2022-12-13T13:04:00;3.80;91.80
30534;DHT22;17318;52.390;9.754;2022-12-13T13:09:04;3.70;92.20
30534;DHT22;17318;52.390;9.754;2022-12-13T13:11:35;3.70;92.10
30534;DHT22;17318;52.390;9.754;2022-12-13T13:14:38;3.80;92.40
30534;DHT22;17318;52.390;9.754;2022-12-13T13:19:52;3.80;92.30
30534;DHT22;17318;52.390;9.754;2022-12-13T13:22:37;3.80;92.00
30534;DHT22;17318;52.390;9.754;2022-12-13T13:27:35;3.70;92.10
30534;DHT22;17318;52.390;9.754;2022-12-13T13:30:24;3.70;92.10
30534;DHT22;17318;52.390;9.754;2022-12-13T13:32:52;3.60;92.30
30534;DHT22;17318;52.390;9.754;2022-12-13T13:37:53;3.40;92.30
30534;DHT22;17318;52.390;9.754;2022-12-13T13:45:59;3.20;92.40
30534;DHT22;17318;52.390;9.754;2022-12-13T13:48:56;3.20;92.40
30534;DHT22;17318;52.390;9.754;2022-12-13T13:51:44;3.10;92.40
30534;DHT22;17318;52.390;9.754;2022-12-13T14:00:09;3.10;93.00
30534;DHT22;17318;52.390;9.754;2022-12-13T14:26:11;2.70;92.90
30534;DHT22;17318;52.390;9.754;2022-12-13T14:28:55;2.60;92.70
30534;DHT22;17318;52.390;9.754;2022-12-13T14:31:25;2.60;92.60
30534;DHT22;17318;52.390;9.754;2022-12-13T14:33:55;2.50;92.60
30534;DHT22;17318;52.390;9.754;2022-12-13T14:36:30;2.50;92.60
30534;DHT22;17318;52.390;9.754;2022-12-13T14:39:02;2.50;92.60
30534;DHT22;17318;52.390;9.754;2022-12-13T14:41:28;2.40;92.60
30534;DHT22;17318;52.390;9.754;2022-12-13T14:43:54;2.30;92.70
30534;DHT22;17318;52.390;9.754;2022-12-13T14:46:20;2.40;92.90
30534;DHT22;17318;52.390;9.754;2022-12-13T14:48:48;2.20;92.70
30534;DHT22;17318;52.390;9.754;2022-12-13T14:51:33;2.10;92.80
30534;DHT22;17318;52.390;9.754;2022-12-13T14:54:02;2.10;92.80
30534;DHT22;17318;52.390;9.754;2022-12-13T14:56:28;2.30;93.00
30534;DHT22;17318;52.390;9.754;2022-12-13T14:58:57;2.00;92.90
30534;DHT22;17318;52.390;9.754;2022-12-13T15:01:33;1.90;93.00
30534;DHT22;17318;52.390;9.754;2022-12-13T15:04:22;1.80;93.00
30534;DHT22;17318;52.390;9.754;2022-12-13T15:07:01;1.80;93.20
30534;DHT22;17318;52.390;9.754;2022-12-13T15:09:28;1.70;93.30
30534;DHT22;17318;52.390;9.754;2022-12-13T15:11:54;1.50;93.40
30534;DHT22;17318;52.390;9.754;2022-12-13T15:14:22;1.80;93.60
30534;DHT22;17318;52.390;9.754;2022-12-13T15:16:50;1.60;93.50
30534;DHT22;17318;52.390;9.754;2022-12-13T15:22:00;1.60;93.50
30534;DHT22;17318;52.390;9.754;2022-12-13T15:24:33;1.50;93.40
30534;DHT22;17318;52.390;9.754;2022-12-13T15:27:00;1.50;93.40
30534;DHT22;17318;52.390;9.754;2022-12-13T15:29:29;1.50;93.40
30534;DHT22;17318;52.390;9.754;2022-12-13T15:31:56;1.50;93.50
30534;DHT22;17318;52.390;9.754;2022-12-13T15:36:59;1.40;93.50
30534;DHT22;17318;52.390;9.754;2022-12-13T15:39:28;1.40;93.50
30534;DHT22;17318;52.390;9.754;2022-12-13T15:41:55;1.40;93.50
30534;DHT22;17318;52.390;9.754;2022-12-13T15:44:28;1.40;93.50
30534;DHT22;17318;52.390;9.754;2022-12-13T15:47:06;1.40;93.50
30534;DHT22;17318;52.390;9.754;2022-12-13T15:50:05;1.30;93.70
30534;DHT22;17318;52.390;9.754;2022-12-13T15:52:38;1.20;93.70
30534;DHT22;17318;52.390;9.754;2022-12-13T15:57:56;1.20;93.90
30534;DHT22;17318;52.390;9.754;2022-12-13T16:00:25;1.10;93.90
30534;DHT22;17318;52.390;9.754;2022-12-13T16:05:55;1.10;94.00
30534;DHT22;17318;52.390;9.754;2022-12-13T16:08:29;0.90;94.10
30534;DHT22;17318;52.390;9.754;2022-12-13T16:10:56;0.90;94.30
30534;DHT22;17318;52.390;9.754;2022-12-13T16:13:31;0.80;94.30
30534;DHT22;17318;52.390;9.754;2022-12-13T16:15:59;0.90;94.40
30534;DHT22;17318;52.390;9.754;2022-12-13T16:18:30;0.80;94.30
30534;DHT22;17318;52.390;9.754;2022-12-13T16:20:57;1.00;94.30
30534;DHT22;17318;52.390;9.754;2022-12-13T16:23:23;0.80;94.30
30534;DHT22;17318;52.390;9.754;2022-12-13T16:25:49;0.70;94.30
30534;DHT22;17318;52.390;9.754;2022-12-13T16:28:16;0.80;94.30
30534;DHT22;17318;52.390;9.754;2022-12-13T16:33:21;0.70;94.40
30534;DHT22;17318;52.390;9.754;2022-12-13T16:35:47;0.70;94.40
30534;DHT22;17318;52.390;9.754;2022-12-13T16:38:14;0.60;94.30
30534;DHT22;17318;52.390;9.754;2022-12-13T16:40:41;0.60;94.40
30534;DHT22;17318;52.390;9.754;2022-12-13T16:43:15;0.60;94.30
30534;DHT22;17318;52.390;9.754;2022-12-13T16:45:43;0.60;94.30
30534;DHT22;17318;52.390;9.754;2022-12-13T16:48:10;0.50;94.30
30534;DHT22;17318;52.390;9.754;2022-12-13T16:50:36;0.50;94.40
30534;DHT22;17318;52.390;9.754;2022-12-13T16:53:03;0.50;94.30
30534;DHT22;17318;52.390;9.754;2022-12-13T16:55:29;0.50;94.30
30534;DHT22;17318;52.390;9.754;2022-12-13T16:57:57;0.40;94.30
30534;DHT22;17318;52.390;9.754;2022-12-13T17:00:23;0.40;94.30
30534;DHT22;17318;52.390;9.754;2022-12-13T17:02:49;0.40;94.30
30534;DHT22;17318;52.390;9.754;2022-12-13T17:05:15;0.40;94.30
30534;DHT22;17318;52.390;9.754;2022-12-13T17:07:41;0.40;94.30
30534;DHT22;17318;52.390;9.754;2022-12-13T17:10:08;0.40;94.30
30534;DHT22;17318;52.390;9.754;2022-12-13T17:12:34;0.30;94.30
30534;DHT22;17318;52.390;9.754;2022-12-13T17:14:59;0.30;94.30
30534;DHT22;17318;52.390;9.754;2022-12-13T17:17:26;0.30;94.40
30534;DHT22;17318;52.390;9.754;2022-12-13T17:19:52;0.50;94.40
30534;DHT22;17318;52.390;9.754;2022-12-13T17:22:17;0.30;94.30
30534;DHT22;17318;52.390;9.754;2022-12-13T17:24:43;0.30;94.30
30534;DHT22;17318;52.390;9.754;2022-12-13T17:27:09;0.10;94.40
30534;DHT22;17318;52.390;9.754;2022-12-13T17:29:34;0.10;94.50
30534;DHT22;17318;52.390;9.754;2022-12-13T17:32:00;0.20;94.50
30534;DHT22;17318;52.390;9.754;2022-12-13T17:34:26;0.10;94.50
30534;DHT22;17318;52.390;9.754;2022-12-13T17:36:51;0.10;94.40
30534;DHT22;17318;52.390;9.754;2022-12-13T17:39:17;0.00;94.50
30534;DHT22;17318;52.390;9.754;2022-12-13T17:41:43;0.00;94.60
30534;DHT22;17318;52.390;9.754;2022-12-13T17:44:09;0.00;94.50
30534;DHT22;17318;52.390;9.754;2022-12-13T17:46:35;0.00;94.50
30534;DHT22;17318;52.390;9.754;2022-12-13T17:49:01;-0.10;94.50
30534;DHT22;17318;52.390;9.754;2022-12-13T17:51:26;-0.10;94.60
30534;DHT22;17318;52.390;9.754;2022-12-13T17:53:52;-0.20;94.50
30534;DHT22;17318;52.390;9.754;2022-12-13T17:56:18;-0.30;94.70
30534;DHT22;17318;52.390;9.754;2022-12-13T17:58:45;-0.30;94.70
30534;DHT22;17318;52.390;9.754;2022-12-13T18:01:19;-0.30;94.70
30534;DHT22;17318;52.390;9.754;2022-12-13T18:03:45;-0.40;94.70
30534;DHT22;17318;52.390;9.754;2022-12-13T18:06:13;-0.40;94.70
30534;DHT22;17318;52.390;9.754;2022-12-13T18:08:40;-0.40;94.70
30534;DHT22;17318;52.390;9.754;2022-12-13T18:11:07;-0.40;94.80